Time;durP1;ratioP1;P1;durP2;ratioP2;P2;SDS_P1;SDS_P2;PMS_P1;PMS_P2;Temp;Humidity;BMP_temperature;BMP_pressure;BME280_temperature;BME280_humidity;BME280_pressure;Samples;Min_cycle;Max_cycle;Signal;HPM_P1;HPM_P2
2022/03/03 00:00:35;;;;;;;15.03;13.83;;;;;;;23.22;24.96;94816.59;6183114;28;103159;-57
2022/03/03 00:03:37;;;;;;;14.80;13.70;;;;;;;23.22;25.04;94820.03;6184134;28;103694;-57
2022/03/03 00:06:39;;;;;;;13.77;12.77;;;;;;;23.23;25.05;94816.28;6178403;28;103945;-57
2022/03/03 00:09:41;;;;;;;14.20;13.10;;;;;;;23.23;25.06;94815.50;6183900;28;104212;-57
2022/03/03 00:12:42;;;;;;;14.10;13.00;;;;;;;23.23;25.55;94807.50;6183416;28;102990;-57
2022/03/03 00:15:44;;;;;;;13.50;12.40;;;;;;;23.23;25.14;94813.59;6183472;28;103447;-57
2022/03/03 00:18:46;;;;;;;13.37;12.27;;;;;;;23.23;24.93;94802.94;6177667;28;103973;-57
2022/03/03 00:21:48;;;;;;;12.67;11.67;;;;;;;23.23;25.34;94812.81;6183759;28;103179;-57
2022/03/03 00:24:49;;;;;;;14.00;12.80;;;;;;;23.24;24.96;94809.06;6183716;28;104017;-57
2022/03/03 00:27:51;;;;;;;12.47;11.47;;;;;;;23.24;25.12;94803.72;6177113;28;102771;-57
2022/03/03 00:30:53;;;;;;;12.67;11.67;;;;;;;23.22;25.33;94798.72;6184407;28;102848;-57
2022/03/03 00:33:55;;;;;;;13.00;12.00;;;;;;;23.23;25.15;94796.84;6183466;28;103012;-58
2022/03/03 00:36:57;;;;;;;12.87;11.77;;;;;;;23.23;25.41;94800.28;6183482;28;103031;-57
2022/03/03 00:39:58;;;;;;;13.20;12.20;;;;;;;23.24;25.17;94795.72;6178028;28;103769;-57
2022/03/03 00:43:00;;;;;;;12.57;11.57;;;;;;;23.23;25.14;94794.94;6182688;28;103578;-57
2022/03/03 00:46:02;;;;;;;11.33;10.50;;;;;;;23.23;25.05;94800.28;6183517;28;104051;-57
2022/03/03 00:49:04;;;;;;;12.67;11.57;;;;;;;23.23;25.23;94792.28;6181648;28;103713;-57
2022/03/03 00:52:06;;;;;;;12.03;11.00;;;;;;;23.24;24.87;94793.06;6181098;28;103066;-57
2022/03/03 00:55:08;;;;;;;11.23;10.40;;;;;;;23.23;25.30;94799.50;6183450;28;103133;-57
2022/03/03 00:58:10;;;;;;;11.60;10.70;;;;;;;23.23;25.35;94794.94;6183063;28;103393;-57
2022/03/03 01:01:12;;;;;;;10.63;9.83;;;;;;;23.24;24.83;94795.72;6178754;28;103202;-56
2022/03/03 01:04:15;;;;;;;10.50;9.70;;;;;;;23.23;25.19;94797.63;6183254;28;104093;-57
2022/03/03 01:07:17;;;;;;;10.90;10.07;;;;;;;23.23;24.95;94799.50;6181971;28;104345;-57
2022/03/03 01:10:18;;;;;;;10.57;9.77;;;;;;;23.23;25.10;94800.28;6183882;28;103956;-57
2022/03/03 01:13:22;;;;;;;10.40;9.60;;;;;;;23.22;24.84;94789.94;6176849;28;105536;-56
2022/03/03 01:16:23;;;;;;;10.20;9.40;;;;;;;23.23;24.99;94796.84;6182294;28;104033;-57
2022/03/03 01:19:25;;;;;;;10.20;9.40;;;;;;;23.23;25.17;94791.50;6183023;28;103489;-57
2022/03/03 01:22:27;;;;;;;10.40;9.50;;;;;;;23.22;25.17;94789.94;6177399;28;104349;-57
2022/03/03 01:25:29;;;;;;;9.37;8.67;;;;;;;23.23;24.81;94786.16;6181693;28;102961;-57
2022/03/03 01:28:31;;;;;;;10.23;9.40;;;;;;;23.23;24.62;94784.28;6182738;28;102977;-57
2022/03/03 01:31:33;;;;;;;9.70;9.00;;;;;;;23.23;25.24;94783.50;6183116;28;103954;-57
2022/03/03 01:34:35;;;;;;;9.70;8.87;;;;;;;23.24;25.12;94775.19;6178821;28;104361;-57
2022/03/03 01:37:37;;;;;;;9.80;9.00;;;;;;;23.24;24.93;94779.75;6182969;28;103184;-59
2022/03/03 01:40:39;;;;;;;10.27;9.47;;;;;;;23.24;24.95;94774.41;6176935;28;102986;-57
2022/03/03 01:43:41;;;;;;;9.80;9.00;;;;;;;23.22;24.82;94769.41;6183068;28;104082;-57
2022/03/03 01:46:51;;;;;;;9.47;8.77;;;;;;;23.23;24.80;94767.50;6177367;28;103278;-57
2022/03/03 01:49:55;;;;;;;9.93;9.13;;;;;;;23.23;24.71;94764.84;6181948;28;102964;-57
2022/03/03 01:52:57;;;;;;;9.07;8.47;;;;;;;23.23;24.89;94762.19;6183949;28;103155;-57
2022/03/03 01:55:59;;;;;;;9.67;8.90;;;;;;;23.23;24.96;94765.63;6177539;28;103089;-57
2022/03/03 01:59:02;;;;;;;9.60;8.80;;;;;;;23.23;24.78;94762.19;6188087;28;104217;-57
2022/03/03 02:02:11;;;;;;;8.53;7.93;;;;;;;23.23;24.98;94760.31;6187219;28;103924;-57
2022/03/03 02:05:13;;;;;;;8.87;8.17;;;;;;;23.23;25.09;94756.84;6186335;28;103832;-57
2022/03/03 02:08:15;;;;;;;8.90;8.20;;;;;;;23.24;24.70;94758.41;6181424;28;104170;-57
2022/03/03 02:11:17;;;;;;;8.77;8.17;;;;;;;23.23;24.88;94760.31;6187258;28;103015;-57
2022/03/03 02:14:19;;;;;;;8.43;7.83;;;;;;;23.23;25.02;94756.84;6185762;28;104321;-57
2022/03/03 02:17:21;;;;;;;8.50;7.90;;;;;;;23.22;25.00;94753.41;6182214;28;104132;-57
2022/03/03 02:20:28;;;;;;;8.90;8.10;;;;;;;23.22;24.68;94756.06;6185535;28;103946;-57
2022/03/03 02:23:30;;;;;;;8.50;7.90;;;;;;;23.24;25.00;94758.41;6186838;28;102807;-57
2022/03/03 02:26:32;;;;;;;8.90;8.20;;;;;;;23.23;25.01;94762.97;6186007;28;104446;-57
2022/03/03 02:29:34;;;;;;;9.00;8.40;;;;;;;23.23;24.95;94762.97;6161186;28;104543;-57
2022/03/03 02:32:36;;;;;;;8.40;7.80;;;;;;;23.24;24.71;94759.19;6186302;28;104028;-57
2022/03/03 02:35:38;;;;;;;8.30;7.70;;;;;;;23.24;24.69;94756.53;6186063;28;103103;-57
2022/03/03 02:38:40;;;;;;;8.60;7.90;;;;;;;23.24;24.58;94764.53;6180470;28;103013;-57
2022/03/03 02:41:42;;;;;;;8.47;7.87;;;;;;;23.25;25.05;94760.78;6180947;28;104123;-57
2022/03/03 02:44:43;;;;;;;8.73;7.93;;;;;;;23.24;24.89;94759.19;6177046;28;103895;-57
2022/03/03 02:47:47;;;;;;;8.20;7.60;;;;;;;23.24;25.08;94755.75;6185078;28;103315;-57
2022/03/03 02:50:48;;;;;;;7.97;7.37;;;;;;;23.25;24.57;94757.31;6180907;28;104222;-57
2022/03/03 02:53:50;;;;;;;8.70;8.00;;;;;;;23.24;24.61;94756.53;6186448;28;104202;-57
2022/03/03 03:00:13;;;;;;;8.93;8.23;;;;;;;23.22;24.81;94761.41;6186215;28;103081;-57
2022/03/03 03:03:16;;;;;;;8.73;7.93;;;;;;;23.23;24.90;94757.63;6179478;28;103225;-58
2022/03/03 03:06:18;;;;;;;8.70;8.00;;;;;;;23.23;24.82;94757.63;6185696;28;104737;-56
2022/03/03 03:09:19;;;;;;;8.57;7.87;;;;;;;23.24;24.70;94761.09;6185365;28;102987;-56
2022/03/03 03:12:21;;;;;;;8.20;7.60;;;;;;;23.24;24.88;94758.41;6182118;28;104007;-56
2022/03/03 03:15:23;;;;;;;8.10;7.50;;;;;;;23.25;24.94;94759.97;6184356;28;103700;-57
2022/03/03 03:18:26;;;;;;;7.60;7.00;;;;;;;23.26;24.52;94761.56;6185215;28;103185;-56
2022/03/03 03:21:27;;;;;;;7.30;6.70;;;;;;;23.25;24.98;94766.09;6186146;28;104582;-56
2022/03/03 03:24:29;;;;;;;8.00;7.40;;;;;;;23.23;24.87;94765.63;6179956;28;104319;-56
2022/03/03 03:27:31;;;;;;;7.53;7.03;;;;;;;23.24;24.96;94763.75;6184325;28;103559;-57
2022/03/03 03:30:33;;;;;;;8.47;7.77;;;;;;;23.25;24.82;94759.97;6185434;28;104198;-57
2022/03/03 03:33:35;;;;;;;8.13;7.50;;;;;;;23.24;24.86;94756.53;6185710;28;103237;-58
2022/03/03 03:36:37;;;;;;;8.53;7.80;;;;;;;23.23;25.09;94765.63;6179726;28;104233;-57
2022/03/03 03:39:39;;;;;;;8.07;7.47;;;;;;;23.21;24.77;94769.72;6184801;28;102947;-58
2022/03/03 03:42:40;;;;;;;8.13;7.53;;;;;;;23.20;24.97;94766.25;6183971;28;103095;-59
2022/03/03 03:45:42;;;;;;;7.93;7.20;;;;;;;23.19;24.84;94766.56;6180541;28;104076;-58
2022/03/03 03:48:44;;;;;;;7.80;7.20;;;;;;;23.20;25.18;94760.16;6184811;28;103957;-59
2022/03/03 03:51:46;;;;;;;8.30;7.63;;;;;;;23.19;24.76;94764.69;6184914;28;104011;-59
2022/03/03 03:54:47;;;;;;;8.20;7.50;;;;;;;23.17;24.90;94766.88;6184470;28;104220;-58
2022/03/03 03:57:49;;;;;;;8.30;7.70;;;;;;;23.18;24.99;94764.97;6178377;28;103349;-58
2022/03/03 04:00:51;;;;;;;8.57;7.87;;;;;;;23.17;24.75;94761.53;6184493;28;103759;-59
2022/03/03 04:03:53;;;;;;;9.10;8.40;;;;;;;23.18;25.13;94764.97;6183646;28;102894;-58
2022/03/03 04:06:55;;;;;;;10.10;9.30;;;;;;;23.17;25.12;94758.88;6185043;28;104010;-58
2022/03/03 04:09:57;;;;;;;10.53;9.73;;;;;;;23.17;24.92;94758.88;6178793;28;104222;-59
2022/03/03 04:12:59;;;;;;;10.80;9.90;;;;;;;23.18;25.17;94762.31;6183838;28;103140;-59
2022/03/03 04:16:01;;;;;;;10.70;9.90;;;;;;;23.17;24.84;94752.75;6185152;28;103448;-59
2022/03/03 04:19:02;;;;;;;10.77;9.87;;;;;;;23.18;24.76;94751.66;6176298;28;102922;-58
2022/03/03 04:22:04;;;;;;;11.17;10.27;;;;;;;23.15;25.06;94736.28;6183639;28;103011;-59
2022/03/03 04:25:10;;;;;;;11.00;10.20;;;;;;;23.18;25.07;94760.47;6182103;28;103243;-59
2022/03/03 04:28:12;;;;;;;10.57;9.67;;;;;;;23.18;24.81;94749.00;6183088;28;103412;-58
2022/03/03 04:31:14;;;;;;;10.63;9.83;;;;;;;23.18;25.17;94754.31;6176387;28;103303;-58
2022/03/03 04:34:15;;;;;;;10.40;9.50;;;;;;;23.18;25.21;94754.31;6182947;28;103156;-59
2022/03/03 04:37:17;;;;;;;11.30;10.37;;;;;;;23.19;25.26;94745.25;6184010;28;104098;-58
2022/03/03 04:40:19;;;;;;;10.40;9.50;;;;;;;23.18;24.74;94741.81;6180173;28;103119;-59
2022/03/03 04:43:21;;;;;;;11.60;10.60;;;;;;;23.18;25.14;94741.81;6177609;28;103884;-58
2022/03/03 04:46:23;;;;;;;9.80;9.00;;;;;;;23.18;24.78;94746.31;6183576;28;103093;-58
2022/03/03 04:49:30;;;;;;;11.87;10.83;;;;;;;23.18;25.08;94744.47;6165961;28;103020;-59
2022/03/03 04:52:33;;;;;;;10.50;9.60;;;;;;;23.16;25.20;94735.97;6177179;28;103059;-58
2022/03/03 04:55:34;;;;;;;10.60;9.70;;;;;;;23.18;24.69;94741.81;6182193;28;103322;-59
2022/03/03 04:58:40;;;;;;;10.30;9.50;;;;;;;23.18;24.67;94738.34;6183681;28;103946;-59
2022/03/03 05:01:42;;;;;;;9.90;9.10;;;;;;;23.18;24.66;94733.00;6183482;28;104038;-59
2022/03/03 05:04:44;;;;;;;11.20;10.37;;;;;;;23.17;24.85;94732.22;6177686;28;103563;-58
2022/03/03 05:07:46;;;;;;;10.50;9.60;;;;;;;23.17;24.47;94740.22;6183304;28;103306;-58
2022/03/03 05:10:48;;;;;;;9.93;9.20;;;;;;;23.18;25.07;94733.81;6181828;28;103076;-58
2022/03/03 05:13:49;;;;;;;11.33;10.47;;;;;;;23.19;24.77;94745.25;6177558;28;103538;-59
2022/03/03 05:16:51;;;;;;;10.60;9.70;;;;;;;22.99;25.72;94746.63;6182737;28;103488;-55
2022/03/03 05:19:53;;;;;;;12.20;10.90;;;;;;;22.73;25.71;94741.25;6183578;28;102956;-55
2022/03/03 05:22:55;;;;;;;11.23;10.20;;;;;;;22.40;25.79;94743.50;6183353;28;102967;-55
2022/03/03 05:25:57;;;;;;;11.77;10.57;;;;;;;22.35;25.48;94744.44;6176307;28;103774;-55
2022/03/03 05:28:59;;;;;;;11.93;10.93;;;;;;;22.21;25.56;94749.06;6183016;28;103127;-55
2022/03/03 05:32:01;;;;;;;11.37;10.40;;;;;;;21.92;25.24;94749.53;6180099;28;102958;-55
2022/03/03 05:35:07;;;;;;;11.73;10.83;;;;;;;21.85;25.00;94749.97;6183706;28;103299;-56
2022/03/03 05:38:09;;;;;;;12.23;11.23;;;;;;;21.77;25.12;94756.00;6171191;28;102956;-55
2022/03/03 05:41:11;;;;;;;12.07;11.07;;;;;;;21.64;24.81;94759.50;6181808;28;102964;-55
2022/03/03 05:44:13;;;;;;;11.63;10.70;;;;;;;21.55;24.93;94753.38;6158736;28;103564;-55
2022/03/03 05:47:16;;;;;;;11.53;10.57;;;;;;;21.51;25.26;94755.84;6165389;28;104106;-57
2022/03/03 05:50:18;;;;;;;12.50;11.40;;;;;;;21.60;24.98;94756.69;6182773;28;103983;-56
2022/03/03 05:53:21;;;;;;;12.40;11.40;;;;;;;21.64;25.30;94759.50;6182255;28;103985;-56
2022/03/03 05:56:23;;;;;;;12.10;11.00;;;;;;;21.67;25.60;94752.78;6181671;28;103111;-56
2022/03/03 05:59:25;;;;;;;11.40;10.40;;;;;;;21.79;25.32;94750.38;6176948;28;102939;-56
2022/03/03 06:02:27;;;;;;;9.90;9.00;;;;;;;21.86;25.73;94759.50;6145915;28;103928;-55
2022/03/03 06:05:29;;;;;;;10.23;9.33;;;;;;;21.88;26.39;94757.31;6177987;28;103049;-56
2022/03/03 06:08:42;;;;;;;11.47;9.77;;;;;;;21.87;26.80;94758.41;6180263;28;103301;-56
2022/03/03 06:12:01;;;;;;;15.23;9.70;;;;;;;21.87;26.66;94760.28;6181318;28;104353;-56
2022/03/03 06:15:05;;;;;;;10.30;9.20;;;;;;;21.69;27.39;94762.06;6182958;28;103164;-55
2022/03/03 06:18:08;;;;;;;7.83;7.03;;;;;;;21.72;28.06;94753.47;6165404;28;103949;-56
2022/03/03 06:21:09;;;;;;;10.47;8.83;;;;;;;21.87;28.91;94753.09;6176388;28;102937;-56
2022/03/03 06:24:11;;;;;;;9.77;8.50;;;;;;;21.96;29.85;94757.66;6181969;28;102978;-55
2022/03/03 06:27:13;;;;;;;12.73;8.37;;;;;;;22.00;28.75;94754.09;6182768;28;104407;-56
2022/03/03 06:30:15;;;;;;;9.80;8.27;;;;;;;21.98;28.41;94750.16;6182829;28;103961;-55
2022/03/03 06:33:17;;;;;;;9.53;8.70;;;;;;;21.93;28.16;94746.56;6175549;28;103067;-56
2022/03/03 06:36:19;;;;;;;11.93;9.03;;;;;;;21.88;28.22;94746.69;6182929;28;104233;-56
2022/03/03 06:39:21;;;;;;;14.30;9.30;;;;;;;21.71;28.21;94746.59;6150291;28;103326;-54
2022/03/03 06:42:23;;;;;;;9.33;8.40;;;;;;;21.89;27.84;94747.47;6154054;28;104184;-55
2022/03/03 06:45:25;;;;;;;10.70;8.03;;;;;;;21.88;28.13;94748.56;6184204;28;103031;-55
2022/03/03 06:48:27;;;;;;;8.37;7.20;;;;;;;21.91;27.65;94751.41;6185981;28;102995;-55
2022/03/03 06:51:37;;;;;;;9.23;7.70;;;;;;;21.96;27.84;94765.66;6186764;28;103124;-56
2022/03/03 06:54:42;;;;;;;10.17;7.80;;;;;;;21.96;27.60;94763.00;6163880;28;104136;-55
2022/03/03 06:57:45;;;;;;;8.97;7.10;;;;;;;21.98;27.56;94755.47;6186573;28;103119;-55
2022/03/03 07:00:51;;;;;;;9.97;7.20;;;;;;;21.97;27.57;94762.69;6186189;28;102997;-55
2022/03/03 07:03:55;;;;;;;8.53;7.63;;;;;;;21.98;27.75;94776.75;6181560;28;103448;-55
2022/03/03 07:06:58;;;;;;;9.23;7.43;;;;;;;21.99;27.25;94770.34;6185821;28;103428;-55
2022/03/03 07:10:01;;;;;;;7.43;6.50;;;;;;;21.98;27.38;94758.94;6184795;28;104255;-55
2022/03/03 07:13:03;;;;;;;10.00;7.20;;;;;;;22.01;27.51;94765.53;6184240;28;103252;-55
2022/03/03 07:16:21;;;;;;;7.77;7.07;;;;;;;22.00;27.64;94762.06;6178617;28;104103;-56
2022/03/03 07:19:31;;;;;;;7.40;6.80;;;;;;;22.03;27.50;94771.34;6184042;28;103732;-55
2022/03/03 07:22:37;;;;;;;6.90;6.17;;;;;;;22.02;27.23;94772.44;6183143;28;103280;-55
2022/03/03 07:25:43;;;;;;;7.27;6.57;;;;;;;22.02;27.29;94764.44;6184124;28;104463;-56
2022/03/03 07:28:51;;;;;;;7.50;6.23;;;;;;;22.02;26.66;94764.44;6184382;28;102998;-56
2022/03/03 07:31:59;;;;;;;7.37;6.77;;;;;;;22.02;27.07;94767.09;6185439;28;102993;-55
2022/03/03 07:35:10;;;;;;;6.70;6.07;;;;;;;22.02;26.91;94759.13;6186205;28;103150;-55
2022/03/03 07:38:18;;;;;;;6.53;5.93;;;;;;;22.03;27.18;94763.34;6174910;28;104065;-55
2022/03/03 07:41:21;;;;;;;7.43;6.80;;;;;;;22.02;27.07;94751.16;6161326;28;102971;-55
2022/03/03 07:44:23;;;;;;;7.23;6.73;;;;;;;22.04;26.93;94754.28;6160789;28;103033;-56
2022/03/03 07:47:27;;;;;;;7.07;6.13;;;;;;;22.03;26.69;94760.69;6161507;28;103330;-55
2022/03/03 07:50:29;;;;;;;6.77;6.10;;;;;;;22.00;26.85;94756.75;6155823;28;103212;-55
2022/03/03 07:53:30;;;;;;;6.53;5.97;;;;;;;22.01;26.91;94755.69;6142859;28;103138;-56
2022/03/03 07:56:39;;;;;;;7.30;6.40;;;;;;;22.00;26.80;94758.63;6161270;28;103714;-55
2022/03/03 07:59:46;;;;;;;6.47;5.87;;;;;;;21.99;26.87;94754.38;6155612;28;104014;-56
2022/03/03 08:02:53;;;;;;;6.03;5.43;;;;;;;21.98;26.55;94772.22;6143478;28;102921;-55
2022/03/03 08:05:56;;;;;;;6.60;6.00;;;;;;;21.98;26.82;94776.75;6160987;28;103225;-55
2022/03/03 08:08:59;;;;;;;6.20;5.67;;;;;;;21.98;26.87;94761.59;6160066;28;102950;-56
2022/03/03 08:12:04;;;;;;;7.57;6.33;;;;;;;21.97;26.72;94773.31;6156215;28;104118;-56
2022/03/03 08:15:08;;;;;;;6.40;5.80;;;;;;;21.98;26.80;94774.88;6160628;28;102996;-56
2022/03/03 08:18:10;;;;;;;6.17;5.67;;;;;;;21.98;26.66;94769.56;6161268;28;104598;-55
2022/03/03 08:21:14;;;;;;;6.57;5.93;;;;;;;21.96;26.63;94770.97;6155744;28;104113;-55
2022/03/03 08:24:16;;;;;;;6.20;5.70;;;;;;;21.98;26.72;94760.81;6160739;28;103602;-55
2022/03/03 08:27:20;;;;;;;6.50;6.00;;;;;;;21.98;26.65;94766.13;6160893;28;103681;-55
2022/03/03 08:30:22;;;;;;;5.97;5.47;;;;;;;21.96;26.50;94757.66;6160967;28;103996;-56
2022/03/03 08:33:36;;;;;;;6.03;5.43;;;;;;;21.97;26.59;94761.91;6155074;28;104044;-56
2022/03/03 08:36:48;;;;;;;6.30;5.80;;;;;;;21.96;26.53;94761.09;6161249;28;103925;-56
2022/03/03 08:39:53;;;;;;;6.70;6.20;;;;;;;21.96;26.68;94761.09;6179276;28;103115;-55
2022/03/03 08:42:59;;;;;;;6.03;5.53;;;;;;;21.99;26.41;94765.03;6163198;28;103903;-55
2022/03/03 08:46:04;;;;;;;6.10;5.60;;;;;;;22.01;26.62;94763.66;6184438;28;103217;-55
2022/03/03 08:49:10;;;;;;;6.27;5.77;;;;;;;22.02;26.56;94759.91;6185876;28;103186;-56
2022/03/03 08:52:12;;;;;;;6.03;5.53;;;;;;;22.01;26.39;94763.66;6184872;28;103185;-56
2022/03/03 08:55:14;;;;;;;6.20;5.70;;;;;;;22.01;26.33;94755.69;6179606;28;102924;-56
2022/03/03 08:58:16;;;;;;;5.77;5.30;;;;;;;22.00;26.21;94761.28;6184891;28;103000;-56
2022/03/03 09:01:18;;;;;;;6.83;5.63;;;;;;;22.00;26.66;94753.31;6184855;28;104549;-58
2022/03/03 09:04:21;;;;;;;5.90;5.40;;;;;;;21.99;26.50;94749.84;6184286;28;103144;-57
2022/03/03 09:07:23;;;;;;;6.40;5.90;;;;;;;22.00;26.20;94759.41;6179596;28;104088;-56
2022/03/03 09:10:25;;;;;;;6.27;5.77;;;;;;;22.00;26.47;94750.63;6184754;28;104135;-56
2022/03/03 09:13:27;;;;;;;6.33;5.80;;;;;;;22.00;26.31;94753.31;6184482;28;103198;-56
2022/03/03 09:16:29;;;;;;;6.00;5.57;;;;;;;22.00;26.28;94747.97;6179026;28;102727;-55
2022/03/03 09:19:31;;;;;;;6.57;5.97;;;;;;;22.01;26.39;94752.25;6184651;28;103018;-55
2022/03/03 09:22:33;;;;;;;5.57;5.07;;;;;;;22.00;26.56;94742.66;6183649;28;104248;-56
2022/03/03 09:25:36;;;;;;;5.80;5.30;;;;;;;22.02;26.38;94751.94;6184344;28;102857;-56
2022/03/03 09:28:39;;;;;;;6.00;5.47;;;;;;;22.02;26.38;94745.81;6178890;28;103767;-56
2022/03/03 09:31:41;;;;;;;5.13;4.73;;;;;;;22.04;26.27;94754.28;6184002;28;103099;-56
2022/03/03 09:34:45;;;;;;;6.07;5.57;;;;;;;22.04;26.22;94746.31;6184560;28;103019;-56
2022/03/03 09:37:47;;;;;;;6.40;5.90;;;;;;;22.04;26.05;94746.31;6182443;28;103073;-56
2022/03/03 09:40:49;;;;;;;6.17;5.67;;;;;;;22.07;26.00;94751.03;6156114;28;105207;-57
2022/03/03 09:43:51;;;;;;;5.70;5.20;;;;;;;22.09;25.91;94749.63;6159615;28;103052;-56
2022/03/03 09:46:55;;;;;;;6.30;5.70;;;;;;;22.11;26.19;94749.31;6159694;28;104009;-56
2022/03/03 09:49:57;;;;;;;5.60;5.10;;;;;;;22.15;26.16;94744.94;6154889;28;104059;-56
2022/03/03 09:52:59;;;;;;;5.40;5.00;;;;;;;22.23;26.22;94749.53;6159390;28;103908;-55
2022/03/03 09:56:01;;;;;;;5.87;5.37;;;;;;;22.29;26.09;94739.53;6159749;28;103829;-55
2022/03/03 09:59:03;;;;;;;5.57;5.17;;;;;;;22.34;25.72;94737.53;6159849;28;103550;-55
2022/03/03 10:02:06;;;;;;;5.53;5.00;;;;;;;22.42;25.51;94731.44;6155137;28;104405;-56
2022/03/03 10:05:08;;;;;;;5.37;4.87;;;;;;;22.43;25.96;94734.91;6158391;28;103677;-56
2022/03/03 10:08:11;;;;;;;5.57;5.17;;;;;;;22.50;25.56;94729.88;6159339;28;102947;-56
2022/03/03 10:11:13;;;;;;;5.60;5.17;;;;;;;22.49;25.85;94729.09;6154193;28;103282;-55
2022/03/03 10:14:26;;;;;;;5.37;4.90;;;;;;;22.46;25.69;94729.72;6158288;28;102940;-56
2022/03/03 10:17:37;;;;;;;5.50;5.00;;;;;;;22.44;25.96;94731.13;6160874;28;103257;-56
2022/03/03 10:20:51;;;;;;;6.13;5.63;;;;;;;22.41;26.10;94727.22;6163042;28;103993;-56
2022/03/03 10:23:53;;;;;;;5.10;4.70;;;;;;;22.39;25.95;94737.41;6157223;28;103096;-56
2022/03/03 10:27:03;;;;;;;5.43;5.03;;;;;;;22.35;26.26;94736.44;6163075;28;102950;-56
2022/03/03 10:30:07;;;;;;;5.40;5.00;;;;;;;22.33;25.91;94735.16;6162879;28;104222;-56
2022/03/03 10:33:18;;;;;;;5.53;5.07;;;;;;;22.27;26.15;94739.84;6158040;28;103235;-55
2022/03/03 10:36:30;;;;;;;5.53;5.13;;;;;;;22.23;26.35;94725.59;6162083;28;103410;-55
2022/03/03 10:39:44;;;;;;;5.90;5.40;;;;;;;22.21;26.24;94722.47;6163343;28;103543;-55
2022/03/03 10:42:48;;;;;;;5.73;5.30;;;;;;;22.14;26.42;94712.25;6187551;28;103930;-55
2022/03/03 10:46:01;;;;;;;6.10;5.60;;;;;;;22.22;26.25;94716.03;6181776;28;103039;-57
2022/03/03 10:49:20;;;;;;;5.60;5.13;;;;;;;22.19;26.44;94709.47;6187426;28;103120;-56
2022/03/03 10:52:25;;;;;;;5.30;4.90;;;;;;;22.20;26.15;94702.25;6169143;28;104023;-56
2022/03/03 10:55:27;;;;;;;5.73;5.30;;;;;;;22.18;25.94;94707.13;6181723;28;104285;-56
2022/03/03 10:58:58;;;;;;;5.30;4.90;;;;;;;22.17;26.17;94710.84;6186440;28;103223;-56
2022/03/03 11:02:01;;;;;;;5.30;4.90;;;;;;;22.18;26.05;94704.44;6186984;28;103432;-56
2022/03/03 11:05:04;;;;;;;5.33;4.90;;;;;;;22.17;26.06;94702.84;6168237;28;103897;-56
2022/03/03 11:08:07;;;;;;;5.20;4.80;;;;;;;22.18;26.16;94712.44;6181566;28;103032;-55
2022/03/03 11:11:09;;;;;;;5.70;5.20;;;;;;;22.17;26.28;94706.34;6186788;28;103259;-56
2022/03/03 11:14:12;;;;;;;5.27;4.87;;;;;;;22.16;26.40;94703.94;6186655;28;103025;-55
2022/03/03 11:17:14;;;;;;;5.20;4.80;;;;;;;22.17;26.20;94705.50;6181241;28;103029;-55
2022/03/03 11:20:17;;;;;;;5.10;4.70;;;;;;;22.16;26.35;94703.94;6185421;28;103008;-55
2022/03/03 11:23:20;;;;;;;5.50;5.00;;;;;;;22.17;26.31;94703.66;6169005;28;102940;-56
2022/03/03 11:26:29;;;;;;;5.67;5.27;;;;;;;22.17;26.21;94716.16;6186630;28;103136;-55
2022/03/03 11:29:38;;;;;;;5.23;4.83;;;;;;;22.17;26.40;94705.50;6180552;28;103897;-57
2022/03/03 11:32:40;;;;;;;5.17;4.77;;;;;;;22.15;26.14;94713.81;6168896;28;103082;-55
2022/03/03 11:35:50;;;;;;;5.13;4.70;;;;;;;22.13;26.21;94713.34;6186354;28;105189;-56
2022/03/03 11:38:55;;;;;;;5.63;5.23;;;;;;;22.14;26.04;94706.91;6153563;28;103025;-55
2022/03/03 11:41:57;;;;;;;5.30;4.80;;;;;;;22.13;26.17;94715.22;6147911;28;103261;-57
2022/03/03 11:45:11;;;;;;;5.40;5.00;;;;;;;22.12;26.12;94710.97;6186735;28;103267;-56
2022/03/03 11:48:19;;;;;;;5.33;4.83;;;;;;;22.12;26.26;94710.97;6169573;28;102989;-56
2022/03/03 11:51:34;;;;;;;5.27;4.90;;;;;;;22.11;26.26;94709.41;6181337;28;103374;-56
2022/03/03 11:55:00;;;;;;;5.07;4.70;;;;;;;22.10;26.19;94710.50;6187080;28;103549;-56
2022/03/03 11:58:10;;;;;;;5.70;5.20;;;;;;;22.10;26.46;94710.50;6168466;28;104010;-56
2022/03/03 12:01:14;;;;;;;5.17;4.77;;;;;;;22.09;26.41;94706.28;6181673;28;103007;-56
2022/03/03 12:04:17;;;;;;;5.13;4.80;;;;;;;22.09;26.21;94707.06;6168600;28;104132;-55
2022/03/03 12:07:29;;;;;;;5.27;4.87;;;;;;;22.08;26.19;94691.41;6186020;28;102940;-56
2022/03/03 12:10:33;;;;;;;5.60;5.20;;;;;;;22.08;26.17;94694.84;6169595;28;105295;-57
2022/03/03 12:13:39;;;;;;;5.80;5.30;;;;;;;22.10;26.32;94689.22;6184286;28;103437;-58
2022/03/03 12:16:45;;;;;;;5.27;4.87;;;;;;;22.10;26.31;94691.88;6170520;28;103624;-59
2022/03/03 12:19:48;;;;;;;5.63;5.23;;;;;;;22.11;26.01;94690.78;6187008;28;102873;-57
2022/03/03 12:23:02;;;;;;;5.70;5.20;;;;;;;22.12;26.18;94697.69;6186638;28;103009;-57
2022/03/03 12:26:05;;;;;;;5.63;5.23;;;;;;;22.13;26.19;94688.59;6184767;28;102730;-56
2022/03/03 12:29:38;;;;;;;5.07;4.67;;;;;;;22.10;26.06;94692.66;6186238;28;102928;-56
2022/03/03 12:32:57;;;;;;;4.90;4.50;;;;;;;22.09;26.04;94683.13;6185612;28;103031;-56
2022/03/03 12:36:01;;;;;;;6.17;5.67;;;;;;;22.10;26.25;94681.25;6180121;28;104247;-57
2022/03/03 12:39:05;;;;;;;4.83;4.43;;;;;;;22.10;26.19;94690.00;6173121;28;103171;-56
2022/03/03 12:42:07;;;;;;;5.40;5.00;;;;;;;22.08;26.43;94684.22;6160791;28;102799;-55
2022/03/03 12:45:12;;;;;;;5.83;5.33;;;;;;;22.08;26.34;94686.09;6156514;28;102853;-56
2022/03/03 12:48:27;;;;;;;5.43;5.03;;;;;;;22.08;26.06;94681.56;6142363;28;103182;-56
2022/03/03 12:51:31;;;;;;;5.40;5.00;;;;;;;22.08;26.29;94676.22;6161383;28;103240;-55
2022/03/03 12:54:36;;;;;;;6.17;5.67;;;;;;;22.09;26.46;94677.03;6160841;28;103128;-55
2022/03/03 12:57:40;;;;;;;5.70;5.30;;;;;;;22.08;26.34;94676.22;6155791;28;102856;-56
2022/03/03 13:00:47;;;;;;;5.90;5.40;;;;;;;22.09;26.25;94671.69;6160790;28;104089;-55
2022/03/03 13:03:49;;;;;;;5.17;4.77;;;;;;;22.08;26.18;94672.78;6160396;28;103094;-55
2022/03/03 13:07:11;;;;;;;5.40;5.00;;;;;;;22.07;26.02;94673.88;6160954;28;102975;-55
2022/03/03 13:10:17;;;;;;;5.67;5.20;;;;;;;22.07;26.26;94672.00;6159757;28;103542;-55
2022/03/03 13:13:18;;;;;;;5.30;4.90;;;;;;;22.07;26.25;94677.34;6160625;28;103908;-55
2022/03/03 13:16:26;;;;;;;5.80;5.40;;;;;;;22.06;26.17;94665.13;6160480;28;103499;-55
2022/03/03 13:19:28;;;;;;;5.30;4.90;;;;;;;22.05;26.27;94666.22;6154960;28;106484;-55
2022/03/03 13:22:36;;;;;;;5.90;5.50;;;;;;;22.05;26.31;94676.84;6160350;28;102705;-56
2022/03/03 13:25:39;;;;;;;5.37;4.97;;;;;;;22.04;26.34;94669.16;6160373;28;103363;-56
2022/03/03 13:28:52;;;;;;;5.33;4.93;;;;;;;22.05;26.38;94676.06;6160001;28;102805;-55
2022/03/03 13:31:54;;;;;;;4.80;4.50;;;;;;;22.04;26.30;94677.13;6154850;28;103122;-55
2022/03/03 13:34:56;;;;;;;5.47;5.07;;;;;;;22.03;26.36;94672.91;6159760;28;104217;-55
2022/03/03 13:38:06;;;;;;;5.17;4.77;;;;;;;22.03;26.11;94678.22;6163990;28;103920;-55
2022/03/03 13:41:25;;;;;;;5.40;5.00;;;;;;;22.02;26.30;94676.66;6178628;28;103162;-56
2022/03/03 13:44:27;;;;;;;5.20;4.80;;;;;;;22.04;26.27;94679.78;6185150;28;103172;-56
2022/03/03 13:47:32;;;;;;;5.10;4.70;;;;;;;22.01;26.30;94672.44;6184006;28;103929;-55
2022/03/03 13:50:36;;;;;;;5.63;5.23;;;;;;;22.01;26.44;94670.56;6184400;28;103743;-55
2022/03/03 13:53:58;;;;;;;5.77;5.07;;;;;;;22.01;26.18;94675.88;6183657;28;102689;-56
2022/03/03 13:57:00;;;;;;;5.13;4.73;;;;;;;22.00;26.46;94676.94;6187922;28;103446;-56
2022/03/03 14:00:05;;;;;;;5.37;4.97;;;;;;;22.01;26.23;94677.75;6170578;28;103490;-56
2022/03/03 14:03:15;;;;;;;5.67;5.27;;;;;;;21.99;26.23;94675.38;6182852;28;103262;-56
2022/03/03 14:06:18;;;;;;;5.70;5.30;;;;;;;21.99;26.15;94669.28;6188889;28;103935;-56
2022/03/03 14:09:24;;;;;;;5.30;4.90;;;;;;;21.99;26.36;94674.59;6187709;28;103223;-56
2022/03/03 14:12:26;;;;;;;6.13;5.63;;;;;;;21.97;26.20;94674.91;6188305;28;102982;-55
2022/03/03 14:15:28;;;;;;;4.57;4.27;;;;;;;21.97;26.40;94664.25;6183257;28;104206;-56